地図

経路データ

SID SEASON NUMBER BASIN SUBBASIN NAME ISO_TIME NATURE LAT LON WMO_WIND WMO_PRES WMO_AGENCY TRACK_TYPE DIST2LAND LANDFALL IFLAG USA_AGENCY USA_ATCF_ID USA_LAT USA_LON USA_RECORD USA_STATUS USA_WIND USA_PRES USA_SSHS USA_R34_NE USA_R34_SE USA_R34_SW USA_R34_NW USA_R50_NE USA_R50_SE USA_R50_SW USA_R50_NW USA_R64_NE USA_R64_SE USA_R64_SW USA_R64_NW USA_POCI USA_ROCI USA_RMW USA_EYE TOKYO_LAT TOKYO_LON TOKYO_GRADE TOKYO_WIND TOKYO_PRES TOKYO_R50_DIR TOKYO_R50_LONG TOKYO_R50_SHORT TOKYO_R30_DIR TOKYO_R30_LONG TOKYO_R30_SHORT TOKYO_LAND CMA_LAT CMA_LON CMA_CAT CMA_WIND CMA_PRES HKO_LAT HKO_LON HKO_CAT HKO_WIND HKO_PRES NEWDELHI_LAT NEWDELHI_LON NEWDELHI_GRADE NEWDELHI_WIND NEWDELHI_PRES NEWDELHI_CI NEWDELHI_DP NEWDELHI_POCI REUNION_LAT REUNION_LON REUNION_TYPE REUNION_WIND REUNION_PRES REUNION_TNUM REUNION_CI REUNION_RMW REUNION_R34_NE REUNION_R34_SE REUNION_R34_SW REUNION_R34_NW REUNION_R50_NE REUNION_R50_SE REUNION_R50_SW REUNION_R50_NW REUNION_R64_NE REUNION_R64_SE REUNION_R64_SW REUNION_R64_NW BOM_LAT BOM_LON BOM_TYPE BOM_WIND BOM_PRES BOM_TNUM BOM_CI BOM_RMW BOM_R34_NE BOM_R34_SE BOM_R34_SW BOM_R34_NW BOM_R50_NE BOM_R50_SE BOM_R50_SW BOM_R50_NW BOM_R64_NE BOM_R64_SE BOM_R64_SW BOM_R64_NW BOM_ROCI BOM_POCI BOM_EYE BOM_POS_METHOD BOM_PRES_METHOD NADI_LAT NADI_LON NADI_CAT NADI_WIND NADI_PRES WELLINGTON_LAT WELLINGTON_LON WELLINGTON_WIND WELLINGTON_PRES DS824_LAT DS824_LON DS824_STAGE DS824_WIND DS824_PRES TD9636_LAT TD9636_LON TD9636_STAGE TD9636_WIND TD9636_PRES TD9635_LAT TD9635_LON TD9635_WIND TD9635_PRES TD9635_ROCI NEUMANN_LAT NEUMANN_LON NEUMANN_CLASS NEUMANN_WIND NEUMANN_PRES MLC_LAT MLC_LON MLC_CLASS MLC_WIND MLC_PRES USA_GUST BOM_GUST BOM_GUST_PER REUNION_GUST REUNION_GUST_PER USA_SEAHGT USA_SEARAD_NE USA_SEARAD_SE USA_SEARAD_SW USA_SEARAD_NW STORM_SPEED STORM_DIR
1986172N04161 1986 55 WP MM OWEN 1986-06-21 00:00:00 NR 3.50000 160.900 main 1206 1177 __________O___ -1 3.50000 160.900 0 13 276
1986172N04161 1986 55 WP MM OWEN 1986-06-21 03:00:00 NR 3.56133 160.262 main 1182 1138 __________P___ -1 3.56133 160.262 0 13 277
1986172N04161 1986 55 WP MM OWEN 1986-06-21 06:00:00 NR 3.64794 159.640 main 1130 1110 __________P___ -1 3.64794 159.640 0 12 280
1986172N04161 1986 55 WP MM OWEN 1986-06-21 09:00:00 NR 3.78557 159.047 main 1104 1086 __________P___ -1 3.78557 159.047 0 12 287
1986172N04161 1986 55 WP MM OWEN 1986-06-21 12:00:00 NR 4.00000 158.500 main 1088 1078 __________O___ -1 4.00000 158.500 0 12 297
1986172N04161 1986 55 WP MM OWEN 1986-06-21 15:00:00 NR 4.30548 158.010 main 1082 1077 __________P___ -1 4.30548 158.010 0 11 306
1986172N04161 1986 55 WP MM OWEN 1986-06-21 18:00:00 NR 4.66984 157.580 main 1091 1085 __________P___ -1 4.66984 157.580 0 11 313
1986172N04161 1986 55 WP MM OWEN 1986-06-21 21:00:00 NR 5.04929 157.210 main 1095 1095 __________P___ -1 5.04929 157.210 0 10 317
1986172N04161 1986 55 WP MM OWEN 1986-06-22 00:00:00 NR 5.40000 156.900 main 1116 1114 __________O___ -1 5.40000 156.900 0 8 317
1986172N04161 1986 55 WP MM OWEN 1986-06-22 03:00:00 NR 5.65265 156.638 main 1127 1127 __________P___ -1 5.65265 156.638 0 7 315
1986172N04161 1986 55 WP MM OWEN 1986-06-22 06:00:00 NR 5.87230 156.432 main 1136 1136 __________P___ -1 5.87230 156.432 0 6 319
1986172N04161 1986 55 WP MM OWEN 1986-06-22 09:00:00 NR 6.08081 156.260 main 1150 1145 __________P___ -1 6.08081 156.260 0 5 322
1986172N04161 1986 55 WP MM OWEN 1986-06-22 12:00:00 NR 6.30000 156.100 main 1160 1160 __________O___ -1 6.30000 156.100 0 6 325
1986172N04161 1986 55 WP MM OWEN 1986-06-22 15:00:00 NR 6.54022 155.942 main 1171 1171 __________P___ -1 6.54022 155.942 0 6 328
1986172N04161 1986 55 WP MM OWEN 1986-06-22 18:00:00 NR 6.79736 155.787 main 1195 1195 __________P___ -1 6.79736 155.787 0 6 329
1986172N04161 1986 55 WP MM OWEN 1986-06-22 21:00:00 NR 7.08082 155.614 main 1216 1216 __________P___ -1 7.08082 155.614 0 7 328
1986172N04161 1986 55 WP MM OWEN 1986-06-23 00:00:00 NR 7.40000 155.400 main 1237 1237 __________O___ -1 7.40000 155.400 0 8 325
1986172N04161 1986 55 WP MM OWEN 1986-06-23 03:00:00 NR 7.76817 155.122 main 1265 1265 __________P___ -1 7.76817 155.122 0 10 322
1986172N04161 1986 55 WP MM OWEN 1986-06-23 06:00:00 NR 8.17006 154.803 main 1295 1292 __________P___ -1 8.17006 154.803 0 11 321
1986172N04161 1986 55 WP MM OWEN 1986-06-23 09:00:00 NR 8.58691 154.457 main 1327 1324 __________P___ -1 8.58691 154.457 0 11 320
1986172N04161 1986 55 WP MM OWEN 1986-06-23 12:00:00 NR 9.00000 154.100 main 1358 1358 __________O___ -1 9.00000 154.100 0 11 319
1986172N04161 1986 55 WP MM OWEN 1986-06-23 15:00:00 NR 9.38611 153.765 main 1393 1390 __________P___ -1 9.38611 153.765 0 10 319
1986172N04161 1986 55 WP MM OWEN 1986-06-23 18:00:00 NR 9.76479 153.422 main 1427 1425 __________P___ -1 9.76479 153.422 0 10 318
1986172N04161 1986 55 WP MM OWEN 1986-06-23 21:00:00 NR 10.1361 153.068 main 1454 1454 __________P___ -1 10.1361 153.068 0 10 316
1986172N04161 1986 55 WP MM OWEN 1986-06-24 00:00:00 NR 10.5000 152.700 main 1492 1492 __________O___ -1 10.5000 152.700 0 10 315
1986172N04161 1986 55 WP MM OWEN 1986-06-24 03:00:00 NR 10.8691 152.334 main 1531 1531 __________P___ -1 10.8691 152.334 0 10 315
1986172N04161 1986 55 WP MM OWEN 1986-06-24 06:00:00 NR 11.2296 151.952 main 1562 1561 __________P___ -1 11.2296 151.952 0 11 312
1986172N04161 1986 55 WP MM OWEN 1986-06-24 09:00:00 NR 11.5752 151.544 main 1600 1597 __________P___ -1 11.5752 151.544 0 11 309
1986172N04161 1986 55 WP MM OWEN 1986-06-24 12:00:00 NR 11.9000 151.100 main 1621 1618 __________O___ -1 11.9000 151.100 0 11 305
1986172N04161 1986 55 WP MM OWEN 1986-06-24 15:00:00 NR 12.2045 150.627 main 1640 1640 __________P___ -1 12.2045 150.627 0 11 301
1986172N04161 1986 55 WP MM OWEN 1986-06-24 18:00:00 NR 12.4871 150.117 main 1662 1660 __________P___ -1 12.4871 150.117 0 12 298
1986172N04161 1986 55 WP MM OWEN 1986-06-24 21:00:00 NR 12.7512 149.574 main 1686 1683 __________P___ -1 12.7512 149.574 0 12 295
1986172N04161 1986 55 WP MM OWEN 1986-06-25 00:00:00 NR 13.0000 149.000 main 1700 1699 __________O___ -1 13.0000 149.000 0 12 295
1986172N04161 1986 55 WP MM OWEN 1986-06-25 03:00:00 NR 13.2547 148.444 main 1728 1728 __________P___ -1 13.2547 148.444 0 12 294
1986172N04161 1986 55 WP MM OWEN 1986-06-25 06:00:00 NR 13.4935 147.854 main 1748 1748 __________P___ -1 13.4935 147.854 0 13 291
1986172N04161 1986 55 WP MM OWEN 1986-06-25 09:00:00 NR 13.7106 147.213 main 1770 1770 __________P___ -1 13.7106 147.213 0 14 287
1986172N04161 1986 55 WP MM OWEN 1986-06-25 12:00:00 NR 13.9000 146.500 main 1792 1792 __________O___ -1 13.9000 146.500 0 16 283
1986172N04161 1986 55 WP MM OWEN 1986-06-25 15:00:00 NR 14.0719 145.616 main 1818 1818 __________P___ -1 14.0719 145.616 0 18 280
1986172N04161 1986 55 WP MM OWEN 1986-06-25 18:00:00 NR 14.2128 144.675 main 1838 1838 __________P___ -1 14.2128 144.675 0 18 278
1986172N04161 1986 55 WP MM OWEN 1986-06-25 21:00:00 NR 14.3220 143.772 main 1863 1858 __________P___ -1 14.3220 143.772 0 16 274
1986172N04161 1986 55 WP MM OWEN 1986-06-26 00:00:00 TS 14.3200 143.000 main 1858 1841 __O_______O___ -1 14.0000 143.000 1 23 1004 14.4000 143.000 0 15 12 271
1986172N04161 1986 55 WP MM OWEN 1986-06-26 03:00:00 TS 14.3394 142.500 main 1841 1805 __P_______P___ -1 14.1153 142.483 1 26 1003 14.4514 142.509 0 15 9 265
1986172N04161 1986 55 WP MM OWEN 1986-06-26 06:00:00 TS 14.2386 142.026 1004 tokyo main 1794 1752 _OO_______P___ -1 13.4000 141.600 2 1004 0 0 0 14.2000 142.000 1 29 1002 14.4771 142.152 0 15 9 261
1986172N04161 1986 55 WP MM OWEN 1986-06-26 09:00:00 TS 14.2007 141.610 main 1752 1709 _PP_______P___ -1 13.5401 141.210 2 1004 0 0 14.2424 141.577 1 29 1002 14.4893 141.844 0 15 8 268
1986172N04161 1986 55 WP MM OWEN 1986-06-26 12:00:00 TS 14.2091 141.200 1004 tokyo main 1709 1669 _OO_______O___ -1 13.7000 140.800 2 1004 0 0 0 14.3000 141.200 1 29 1002 14.5000 141.500 1 15 9 276
1986172N04161 1986 55 WP MM OWEN 1986-06-26 15:00:00 TS 14.2829 140.731 main 1658 1618 _PP_______P___ -1 13.8925 140.357 2 1004 0 0 14.4349 140.843 1 29 1002 14.5212 140.992 1 17 9 283
1986172N04161 1986 55 WP MM OWEN 1986-06-26 18:00:00 TS 14.4143 140.279 1004 tokyo main 1618 1579 _OO_______P___ -1 14.1000 139.900 2 1004 0 0 0 14.6000 140.500 1 29 1002 14.5428 140.437 1 20 9 287
1986172N04161 1986 55 WP MM OWEN 1986-06-26 21:00:00 TS 14.5417 139.834 main 1568 1527 _PP_______P___ -1 14.3075 139.442 2 1004 0 0 14.7497 140.195 1 29 1002 14.5680 139.864 1 22 9 286
1986172N04161 1986 55 WP MM OWEN 1986-06-27 00:00:00 TS 14.6667 139.367 1004 tokyo main 1529 1478 _OO_______O___ -1 14.5000 139.000 2 1004 0 0 0 14.9000 139.800 1 29 1002 14.6000 139.300 1 25 10 284
1986172N04161 1986 55 WP MM OWEN 1986-06-27 03:00:00 TS 14.7817 138.858 main 1478 1427 _PP_______P___ -1 14.6649 138.600 2 1004 0 0 15.0502 139.188 1 29 1002 14.6301 138.785 1 25 10 283
1986172N04161 1986 55 WP MM OWEN 1986-06-27 06:00:00 TS 14.8898 138.328 1004 tokyo main 1416 1366 _OO_______P___ -1 14.8000 138.200 2 1004 0 0 0 15.2000 138.500 1 29 1002 14.6694 138.285 1 25 10 282
1986172N04161 1986 55 WP MM OWEN 1986-06-27 09:00:00 TS 14.9963 137.801 main 1366 1316 _PP_______P___ -1 14.8925 137.750 2 1004 0 0 15.3725 137.863 1 29 1002 14.7239 137.792 1 25 10 282
1986172N04161 1986 55 WP MM OWEN 1986-06-27 12:00:00 TS 15.1000 137.300 1004 tokyo main 1316 1276 _OO_______O___ -1 15.0000 137.300 2 1004 0 0 0 15.5000 137.300 1 29 1002 14.8000 137.300 1 25 9 284
1986172N04161 1986 55 WP MM OWEN 1986-06-27 15:00:00 TS 15.2135 136.866 main 1276 1238 _PP_______P___ -1 15.2073 136.908 2 1003 0 0 15.5222 136.885 1 29 1002 14.9112 136.804 1 26 9 284
1986172N04161 1986 55 WP MM OWEN 1986-06-27 18:00:00 TS 15.3140 136.436 1002 tokyo main 1227 1189 _OO_______P___ -1 15.4000 136.500 2 1002 0 0 0 15.5000 136.500 1 29 1002 15.0420 136.308 1 27 9 282
1986172N04161 1986 55 WP MM OWEN 1986-06-27 21:00:00 TS 15.3930 135.961 main 1189 1138 _PP_______P___ -1 15.4949 136.030 2 1001 0 0 15.5072 136.045 1 29 1001 15.1768 135.807 1 28 10 277
1986172N04161 1986 55 WP MM OWEN 1986-06-28 00:00:00 TS 15.4286 135.429 1000 tokyo main 1127 1066 OOOO______O___ jtwc_wp WP061986 15.3000 135.300 30 -1 15.5000 135.500 2 1000 0 0 0 15.5000 135.500 1 29 1001 15.5000 135.500 TD 30 1001 15.3000 135.300 1 30 11 269
1986172N04161 1986 55 WP MM OWEN 1986-06-28 03:00:00 TS 15.3800 134.802 main 1066 1005 PPPP______P___ WP061986 15.2726 134.817 32 -1 15.3852 134.885 2 1000 0 0 15.4202 134.807 1 29 1001 15.4106 134.682 TD 30 1001 15.3731 134.765 1 31 12 267
1986172N04161 1986 55 WP MM OWEN 1986-06-28 06:00:00 TS 15.3689 134.173 1000 tokyo main 1005 949 OOOO______P___ jtwc_wp WP061986 15.3000 134.300 35 0 15.3000 134.300 2 1000 0 0 0 15.4000 134.100 1 29 1001 15.4000 133.900 TD 30 1001 15.4350 134.227 1 32 12 275
1986172N04161 1986 55 WP MM OWEN 1986-06-28 09:00:00 TS 15.4823 133.605 main 949 904 PPPP______P___ WP061986 15.4201 133.735 35 0 15.4047 133.885 2 1000 0 0 15.5623 133.513 1 29 1000 15.5199 133.190 TD 30 1000 15.5044 133.700 1 33 11 286
1986172N04161 1986 55 WP MM OWEN 1986-06-28 12:00:00 TS 15.6600 133.100 1000 tokyo main 909 875 OOOO______O___ jtwc_wp WP061986 15.6000 133.200 35 0 15.6000 133.500 2 1000 0 0 0 15.8000 133.000 1 29 1000 15.7000 132.600 TD 30 1000 15.6000 133.200 2 35 10 291
1986172N04161 1986 55 WP MM OWEN 1986-06-28 15:00:00 TS 15.8430 132.643 main 865 838 PPPP______P___ WP061986 15.7997 132.785 35 0 15.7925 133.015 2 1000 0 0 16.0073 132.527 1 29 1000 15.8572 132.147 TD 32 999 15.7579 132.742 2 35 9 294
1986172N04161 1986 55 WP MM OWEN 1986-06-28 18:00:00 TS 16.0284 132.223 1000 tokyo main 838 813 OOOO______P___ jtwc_wp WP061986 16.0000 132.400 35 0 16.0000 132.500 2 1000 0 0 0 16.2000 132.100 1 29 1000 16.0000 131.800 TS 35 999 15.9419 132.313 2 35 9 294
1986172N04161 1986 55 WP MM OWEN 1986-06-28 21:00:00 TS 16.2024 131.804 main 813 784 PPPP______P___ WP061986 16.1649 131.957 35 0 16.2300 131.985 2 999 0 0 16.3799 131.693 1 33 999 16.1074 131.485 TS 35 998 16.1299 131.902 2 35 9 292
1986172N04161 1986 55 WP MM OWEN 1986-06-29 00:00:00 TS 16.3400 131.400 35 998 tokyo main 784 756 OOOO______O___ jtwc_wp WP061986 16.3000 131.500 35 0 16.4000 131.500 3 35 998 0 9 100 100 0 16.5000 131.300 2 38 999 16.2000 131.200 TS 35 998 16.3000 131.500 2 35 8 285
1986172N04161 1986 55 WP MM OWEN 1986-06-29 03:00:00 TS 16.4115 130.997 main 756 726 PPPP______P___ WP061986 16.4075 131.035 37 0 16.4148 131.085 3 35 996 0 9 100 100 16.5225 130.892 2 38 996 16.3075 130.893 TS 35 995 16.4052 131.080 2 37 8 279
1986172N04161 1986 55 WP MM OWEN 1986-06-29 06:00:00 TS 16.4585 130.614 35 994 tokyo main 726 696 OOOO______P___ jtwc_wp WP061986 16.5000 130.600 40 0 16.4000 130.700 3 35 994 0 9 100 100 0 16.5000 130.500 2 38 994 16.4000 130.600 TS 35 993 16.4923 130.669 2 40 7 279
1986172N04161 1986 55 WP MM OWEN 1986-06-29 09:00:00 TS 16.5206 130.260 main 696 663 PPPP______P___ WP061986 16.5924 130.235 42 0 16.4775 130.293 3 37 989 0 9 112 112 16.4999 130.143 2 38 993 16.4499 130.357 TS 37 992 16.5833 130.274 2 42 7 282
1986172N04161 1986 55 WP MM OWEN 1986-06-29 12:00:00 TS 16.6000 129.920 40 985 tokyo main 663 639 OOOO______O___ jtwc_wp WP061986 16.7000 129.900 45 0 16.6000 129.900 3 40 985 0 9 125 125 0 16.5000 129.800 2 38 992 16.5000 130.100 TS 40 992 16.7000 129.900 2 45 7 284
1986172N04161 1986 55 WP MM OWEN 1986-06-29 15:00:00 TS 16.6884 129.567 main 639 608 PPPP______P___ WP061986 16.8275 129.542 47 0 16.7349 129.542 3 40 987 0 9 125 125 16.4550 129.435 2 38 992 16.5700 129.772 TS 40 992 16.8548 129.541 2 46 7 289
1986172N04161 1986 55 WP MM OWEN 1986-06-29 18:00:00 TS 16.8280 129.221 40 990 tokyo main 608 594 OOOO______P___ jtwc_wp WP061986 17.0000 129.200 50 0 16.9000 129.200 3 40 990 0 9 125 125 0 16.5000 129.100 2 38 992 16.7000 129.400 TS 40 992 17.0398 129.205 2 47 7 298
1986172N04161 1986 55 WP MM OWEN 1986-06-29 21:00:00 TS 17.0379 128.892 main 594 589 PPPP______P___ WP061986 17.2274 128.892 50 0 17.0775 128.842 3 40 990 0 9 125 125 16.7324 128.842 2 38 991 16.8975 128.992 TS 42 991 17.2549 128.891 2 48 8 309
1986172N04161 1986 55 WP MM OWEN 1986-06-30 00:00:00 TS 17.3200 128.580 40 990 tokyo main 589 587 OOOO______O___ jtwc_wp WP061986 17.5000 128.600 50 0 17.3000 128.500 3 40 990 0 9 125 125 0 17.1000 128.600 2 38 990 17.2000 128.600 TS 45 990 17.5000 128.600 2 50 9 317
1986172N04161 1986 55 WP MM OWEN 1986-06-30 03:00:00 TS 17.6628 128.272 main 595 587 PPPP______P___ WP061986 17.7925 128.285 47 0 17.5700 128.177 3 42 991 0 9 125 125 17.5575 128.300 2 43 988 17.6349 128.278 TS 45 990 17.7589 128.320 2 48 9 322
1986172N04161 1986 55 WP MM OWEN 1986-06-30 06:00:00 TS 18.0295 127.992 45 992 tokyo main 593 577 OOOO______P___ jtwc_wp WP061986 18.1000 128.000 45 0 17.9000 127.900 3 45 992 0 9 125 125 0 18.0000 128.000 3 48 987 18.1000 128.000 TS 45 991 18.0473 128.062 2 47 9 325
1986172N04161 1986 55 WP MM OWEN 1986-06-30 09:00:00 TS 18.3613 127.760 main 580 559 PPPP______P___ WP061986 18.3999 127.785 45 0 18.3073 127.707 3 45 992 0 9 137 137 18.2649 127.750 3 48 988 18.4725 127.735 TS 45 991 18.3621 127.823 2 46 8 327
1986172N04161 1986 55 WP MM OWEN 1986-06-30 12:00:00 TS 18.6800 127.540 45 992 tokyo main 549 529 OOOO______O___ jtwc_wp WP061986 18.7000 127.600 45 0 18.7000 127.500 3 45 992 0 9 150 150 0 18.5000 127.500 3 48 990 18.8000 127.500 TS 45 992 18.7000 127.600 2 45 8 322
1986172N04161 1986 55 WP MM OWEN 1986-06-30 15:00:00 TS 18.9659 127.268 main 530 502 PPPP______P___ WP061986 18.9775 127.400 42 0 18.9427 127.142 3 45 993 0 9 150 150 18.8126 127.185 3 48 991 19.1000 127.277 TS 42 993 18.9967 127.333 2 43 8 321
1986172N04161 1986 55 WP MM OWEN 1986-06-30 18:00:00 TS 19.2845 127.018 45 994 tokyo main 504 491 OOOO______P___ jtwc_wp WP061986 19.3000 127.200 40 0 19.2000 126.800 3 45 994 0 9 150 150 0 19.2000 126.900 3 48 992 19.4000 127.100 TS 40 994 19.3227 127.089 2 42 8 328
1986172N04161 1986 55 WP MM OWEN 1986-06-30 21:00:00 TS 19.6539 126.803 main 494 488 PPPP______P___ WP061986 19.6751 126.955 40 0 19.5824 126.560 3 42 995 0 9 137 137 19.6324 126.653 3 43 993 19.6675 126.948 TS 37 994 19.7123 126.900 2 41 9 342
1986172N04161 1986 55 WP MM OWEN 1986-07-01 00:00:00 TS 20.1600 126.720 40 996 tokyo main 503 503 OOOO______O___ jtwc_wp WP061986 20.2000 126.800 40 0 20.1000 126.500 3 40 996 0 9 125 125 0 20.2000 126.600 2 38 995 20.1000 126.900 TS 35 995 20.2000 126.800 2 40 12 3
1986172N04161 1986 55 WP MM OWEN 1986-07-01 03:00:00 TS 20.8784 126.856 main 556 556 PPPP______P___ WP061986 20.9700 126.847 40 0 20.7402 126.726 3 40 996 0 9 112 112 20.9628 126.889 2 38 995 20.8825 126.997 TS 32 995 20.8365 126.822 2 38 16 13
1986172N04161 1986 55 WP MM OWEN 1986-07-01 06:00:00 TS 21.6935 127.087 40 996 tokyo main 606 589 OOOO______P___ jtwc_wp WP061986 21.8000 127.000 40 0 21.5000 127.000 3 40 996 0 9 100 100 0 21.8000 127.300 2 38 995 21.8000 127.200 TD 30 995 21.5676 126.936 2 37 17 13
1986172N04161 1986 55 WP MM OWEN 1986-07-01 09:00:00 TS 22.4819 127.255 main 593 577 PPPP______P___ WP061986 22.4725 127.143 37 0 22.3574 127.009 3 40 996 0 9 100 100 22.5874 127.580 2 33 995 22.6525 127.435 TD 30 995 22.3398 127.107 2 36 16 11
1986172N04161 1986 55 WP MM OWEN 1986-07-01 12:00:00 TS 23.2200 127.420 40 996 tokyo main 577 574 OOOO______O___ jtwc_wp WP061986 23.1000 127.300 35 0 23.2000 127.000 3 40 996 0 9 100 100 0 23.3000 127.800 1 29 995 23.4000 127.700 TD 30 995 23.1000 127.300 2 35 14 13
1986172N04161 1986 55 WP MM OWEN 1986-07-01 15:00:00 TS 23.8634 127.591 main 579 577 PPPP______P___ WP061986 23.7500 127.443 35 0 23.9024 127.155 3 37 997 0 9 100 100 23.8799 127.958 1 29 995 23.9524 127.950 TD 27 996 23.8067 127.486 2 33 13 15
1986172N04161 1986 55 WP MM OWEN 1986-07-01 18:00:00 TS 24.4447 127.769 35 998 tokyo main 589 584 OOOO______P___ jtwc_wp WP061986 24.4000 127.600 35 0 24.5000 127.400 3 35 998 0 9 100 100 0 24.4000 128.100 1 29 995 24.4000 128.200 TD 25 997 24.4648 127.662 2 32 12 15
1986172N04161 1986 55 WP MM OWEN 1986-07-01 21:00:00 TS 25.0013 127.916 main 594 593 PPPP______P___ WP061986 25.0572 127.748 32 -1 24.9839 127.582 3 35 999 0 9 80 65 24.9568 128.211 1 29 996 24.8451 128.450 TD 25 998 25.0905 127.832 2 31 12 20
1986172N04161 1986 55 WP MM OWEN 1986-07-02 00:00:00 TS 25.5462 128.208 35 1000 tokyo main 625 577 OOOO______O___ jtwc_wp WP061986 25.7000 128.000 30 -1 25.5000 128.000 3 35 1000 0 3 60 30 0 25.5000 128.500 1 29 998 25.3000 128.700 TD 25 1000 25.7000 128.000 1 30 15 38
1986172N04161 1986 55 WP MM OWEN 1986-07-02 03:00:00 TS 26.1505 128.898 main 563 487 PPP___________ WP061986 26.3107 128.441 30 -1 26.2510 128.893 3 1000 0 3 25.9699 129.131 1 26 999 TD 1 19 51
1986172N04161 1986 55 WP MM OWEN 1986-07-02 06:00:00 TS 26.7667 129.889 1000 tokyo main 475 413 OOO___________ jtwc_wp WP061986 26.9000 129.000 30 -1 27.0000 130.000 2 1000 0 0 0 26.5000 130.000 1 23 1000 1 22 57
1986172N04161 1986 55 WP MM OWEN 1986-07-02 09:00:00 TS 27.3550 130.946 main 402 354 _PP___________ WP061986 -1 27.5367 131.002 2 1000 0 0 27.1733 130.891 1 23 1000 1 22 57
1986172N04161 1986 55 WP MM OWEN 1986-07-02 12:00:00 MX 28.0000 132.000 1000 tokyo main 357 339 _OO___________ -1 28.0000 132.000 2 1000 0 0 0 28.0000 132.000 9 23 1000 24 55
1986172N04161 1986 55 WP MM OWEN 1986-07-02 15:00:00 MX 28.7098 133.126 main 342 335 _PP___________ -1 28.4200 132.857 2 999 0 0 28.9996 133.394 9 26 999 27 56
1986172N04161 1986 55 WP MM OWEN 1986-07-02 18:00:00 ET 29.5000 134.500 998 tokyo main 364 346 _OO___________ -1 29.0000 134.000 6 998 0 0 0 30.0000 135.000 9 29 998 32 59
1986172N04161 1986 55 WP MM OWEN 1986-07-02 21:00:00 ET 30.3597 136.243 main 336 311 _PP___________ -1 29.9242 135.775 6 998 0 0 30.7952 136.710 9 29 998 36 61
1986172N04161 1986 55 WP MM OWEN 1986-07-03 00:00:00 ET 31.2500 138.200 998 tokyo main 324 304 _OO___________ -1 31.0000 138.000 6 998 0 0 0 31.5000 138.400 9 29 998 38 63
1986172N04161 1986 55 WP MM OWEN 1986-07-03 03:00:00 ET 32.0916 140.167 main 307 286 _PP___________ -1 32.0034 140.500 6 998 0 0 32.1798 139.834 9 29 998 38 63
1986172N04161 1986 55 WP MM OWEN 1986-07-03 06:00:00 ET 32.9500 142.150 998 tokyo main 295 290 _OO___________ -1 33.0000 143.000 6 998 0 0 0 32.9000 141.300 9 29 998 37 62
1986172N04161 1986 55 WP MM OWEN 1986-07-03 09:00:00 ET 33.8306 144.024 main 353 353 _PP___________ -1 33.9889 145.010 6 998 0 0 33.6722 143.037 9 29 998 37 60
1986172N04161 1986 55 WP MM OWEN 1986-07-03 12:00:00 ET 34.8000 146.000 998 tokyo main 472 472 _OO___________ -1 35.0000 147.000 6 998 0 0 0 34.6000 145.000 9 29 998 41 60
1986172N04161 1986 55 WP MM OWEN 1986-07-03 15:00:00 ET 35.8722 148.364 main 666 666 _PP___________ -1 36.0071 149.572 6 997 0 0 35.7373 147.156 9 29 998 44 60
1986172N04161 1986 55 WP MM OWEN 1986-07-03 18:00:00 ET 37.0000 150.750 996 tokyo main 806 806 _OO___________ -1 37.0000 152.000 6 996 0 0 0 37.0000 149.500 9 29 998 43 57
1986172N04161 1986 55 WP MM OWEN 1986-07-03 21:00:00 ET 38.2201 152.877 main 833 816 _PP___________ -1 38.0656 153.654 6 996 0 0 38.3747 152.100 9 29 997 39 54
1986172N04161 1986 55 WP MM OWEN 1986-07-04 00:00:00 ET 39.2500 154.750 996 tokyo main 814 813 _OO___________ -1 39.0000 155.000 6 996 0 0 0 39.5000 154.500 9 29 996 31 60
1986172N04161 1986 55 WP MM OWEN 1986-07-04 03:00:00 ET 39.7809 156.355 main 844 844 _PP___________ -1 39.5754 156.580 6 996 0 0 39.9864 156.131 9 29 996 25 69
1986172N04161 1986 55 WP MM OWEN 1986-07-04 06:00:00 ET 40.1500 157.750 996 tokyo main 884 884 _OO___________ -1 40.0000 158.000 6 996 0 0 0 40.3000 157.500 9 29 996 24 68
1986172N04161 1986 55 WP MM OWEN 1986-07-04 09:00:00 ET 40.7020 159.283 main 933 932 _PP___________ -1 40.4983 159.151 6 996 0 0 40.9057 159.415 9 29 996 24 62
1986172N04161 1986 55 WP MM OWEN 1986-07-04 12:00:00 ET 41.2500 160.500 996 tokyo main 967 974 _OO___________ -1 41.0000 160.000 6 996 0 0 0 41.5000 161.000 9 29 996 17 53
1986172N04161 1986 55 WP MM OWEN 1986-07-04 15:00:00 ET 41.7156 161.086 main 983 973 _PP___________ -1 41.4984 160.577 6 995 0 0 41.9328 161.595 9 29 996 11 35
1986172N04161 1986 55 WP MM OWEN 1986-07-04 18:00:00 ET 42.1500 161.350 994 tokyo main 974 948 _OO___________ -1 42.0000 161.000 6 994 0 0 0 42.3000 161.700 9 29 996 10 24
1986172N04161 1986 55 WP MM OWEN 1986-07-04 21:00:00 ET 42.6077 161.627 main 948 920 _PP___________ -1 42.5734 161.425 6 994 0 0 42.6419 161.829 9 29 996 10 29
1986172N04161 1986 55 WP MM OWEN 1986-07-05 00:00:00 ET 43.0000 162.000 994 tokyo main 923 917 _OO___________ -1 43.0000 162.000 6 994 0 0 0 43.0000 162.000 9 29 996 10 51
1986172N04161 1986 55 WP MM OWEN 1986-07-05 03:00:00 ET 43.2676 162.724 main 923 923 _PP___________ -1 43.0774 163.002 6 995 0 0 43.4578 162.446 9 29 996 12 68
1986172N04161 1986 55 WP MM OWEN 1986-07-05 06:00:00 ET 43.4500 163.500 996 tokyo main 939 939 _OO___________ -1 43.0000 164.000 6 996 0 0 0 43.9000 163.000 9 29 996 9 68
1986172N04161 1986 55 WP MM OWEN 1986-07-05 09:00:00 ET 43.6309 163.937 main 949 945 _PP___________ -1 42.9972 164.500 6 996 0 0 44.2646 163.373 9 29 996 8 67
1986172N04161 1986 55 WP MM OWEN 1986-07-05 12:00:00 ET 43.7500 164.500 996 tokyo main 961 961 _OO___________ -1 43.0000 165.000 6 996 0 0 0 44.5000 164.000 9 29 996 12 84
1986172N04161 1986 55 WP MM OWEN 1986-07-05 15:00:00 ET 43.7556 165.590 main 1019 1019 _PP___________ -1 42.9258 165.929 6 998 0 0 44.5854 165.252 9 29 996 17 94
1986172N04161 1986 55 WP MM OWEN 1986-07-05 18:00:00 ET 43.6429 166.871 1000 tokyo main 1106 1106 _OO___________ -1 43.0000 167.000 6 1000 0 0 0 44.5000 166.700 9 29 996 17 90
1986172N04161 1986 55 WP MM OWEN 1986-07-05 21:00:00 ET 43.7594 167.925 main 1140 1140 _PP___________ -1 43.4968 167.920 6 1000 0 0 44.2844 167.935 9 26 998 16 77
1986172N04161 1986 55 WP MM OWEN 1986-07-06 00:00:00 ET 44.0000 169.000 1000 tokyo main 1177 1177 _OO___________ -1 44.0000 169.000 6 1000 0 0 0 44.0000 169.000 9 23 1000 18 80
1986172N04161 1986 55 WP MM OWEN 1986-07-06 03:00:00 ET 44.0756 170.429 main 1244 1244 _P____________ -1 44.0756 170.429 6 1002 0 0 9 21 90
1986172N04161 1986 55 WP MM OWEN 1986-07-06 06:00:00 ET 44.0000 172.000 1004 tokyo main 1331 1331 _O____________ -1 44.0000 172.000 6 1004 0 0 0 22 94
1986172N04161 1986 55 WP MM OWEN 1986-07-06 09:00:00 ET 43.9232 173.506 main 1413 1413 _P____________ -1 43.9232 173.506 6 1004 0 0 22 90
1986172N04161 1986 55 WP MM OWEN 1986-07-06 12:00:00 ET 44.0000 175.000 1004 tokyo main 1482 1425 _O____________ -1 44.0000 175.000 6 1004 0 0 0 22 77
1986172N04161 1986 55 WP MM OWEN 1986-07-06 15:00:00 ET 44.4039 176.490 main 1420 1296 _P____________ -1 44.4039 176.490 6 1005 0 0 24 65
1986172N04161 1986 55 WP MM OWEN 1986-07-06 18:00:00 ET 45.0000 178.000 1006 tokyo main 1290 _O____________ -1 45.0000 178.000 6 1006 0 0 0 24 61

デジタル台風データ・検索

IBTrACS Databaseについて

本データベースは、米国NOAAが公開する1842年以降の世界の熱帯低気圧のベストトラックデータアーカイブInternational Best Track Archive for Climate Stewardship (IBTrACS)を、ウェブで閲覧しやすい形式に変換したものです。

最終更新日:2021-12-08